Time;durP1;ratioP1;P1;durP2;ratioP2;P2;SDS_P1;SDS_P2;PMS_P1;PMS_P2;Temp;Humidity;BMP_temperature;BMP_pressure;BME280_temperature;BME280_humidity;BME280_pressure;Samples;Min_cycle;Max_cycle;Signal;HPM_P1;HPM_P2
2022/06/06 00:01:19;;;;;;;9.38;5.00;;;;;;;16.25;65.12;101376.41;4995013;28;20065;-52
2022/06/06 00:03:47;;;;;;;8.07;4.78;;;;;;;16.21;65.09;101377.38;5007692;28;20050;-51
2022/06/06 00:06:17;;;;;;;7.53;4.90;;;;;;;16.19;65.18;101376.53;5014383;28;20328;-53
2022/06/06 00:08:45;;;;;;;6.30;4.32;;;;;;;16.19;65.16;101371.31;5014682;28;20119;-50
2022/06/06 00:11:13;;;;;;;6.25;4.50;;;;;;;16.17;65.36;101362.63;4998568;28;20061;-50
2022/06/06 00:13:44;;;;;;;7.95;4.70;;;;;;;16.14;65.22;101365.31;4995104;28;20061;-50
2022/06/06 00:16:12;;;;;;;6.72;4.28;;;;;;;16.11;64.85;101357.50;4994850;28;20065;-49
2022/06/06 00:18:39;;;;;;;7.82;4.75;;;;;;;16.08;65.11;101357.56;4995006;28;20136;-49
2022/06/06 00:21:08;;;;;;;6.88;4.72;;;;;;;16.06;64.99;101354.13;4994500;28;20062;-52
2022/06/06 00:23:38;;;;;;;8.95;5.13;;;;;;;16.03;64.90;101349.81;4994347;28;20463;-50
2022/06/06 00:26:07;;;;;;;6.30;3.97;;;;;;;16.02;65.10;101342.00;4994927;28;20061;-49
2022/06/06 00:28:34;;;;;;;8.52;4.60;;;;;;;16.01;65.25;101340.28;4994739;28;20050;-52
2022/06/06 00:34:48;;;;;;;7.07;5.20;;;;;;;16.01;65.77;101335.06;4994690;28;20054;-52
2022/06/06 00:36:42;;;;;;;5.32;3.85;;;;;;;15.91;65.12;101333.53;4994040;28;20166;-51
2022/06/06 00:39:12;;;;;;;7.90;4.55;;;;;;;15.88;65.24;101325.75;4994027;28;20124;-49
2022/06/06 00:41:40;;;;;;;6.55;4.13;;;;;;;15.84;64.94;101321.50;4994566;28;20058;-49
2022/06/06 00:44:11;;;;;;;6.18;4.20;;;;;;;15.82;64.83;101320.66;4994255;28;20065;-50
2022/06/06 00:46:46;;;;;;;6.22;4.57;;;;;;;15.78;65.38;101318.13;4994230;28;20065;-49
2022/06/06 00:49:18;;;;;;;6.65;4.05;;;;;;;15.77;65.41;101311.16;4994504;28;20050;-52
2022/06/06 00:51:45;;;;;;;8.80;5.10;;;;;;;15.75;65.04;101317.31;4994164;28;20490;-50
2022/06/06 00:54:11;;;;;;;7.68;5.15;;;;;;;15.71;65.09;101323.50;4994137;28;20057;-53
2022/06/06 00:56:43;;;;;;;9.00;5.05;;;;;;;15.69;65.66;101310.47;4993927;28;20641;-50
2022/06/06 00:59:14;;;;;;;8.10;4.93;;;;;;;15.67;65.39;101325.31;4994074;28;20104;-49
2022/06/06 01:01:43;;;;;;;10.88;6.03;;;;;;;15.63;65.44;101313.22;4994094;28;20050;-50
2022/06/06 01:04:13;;;;;;;8.27;5.70;;;;;;;15.61;65.34;101316.75;4993810;28;20050;-49
2022/06/06 01:06:45;;;;;;;9.13;5.60;;;;;;;15.58;65.44;101319.38;4993961;28;20058;-49
2022/06/06 01:09:12;;;;;;;9.93;4.65;;;;;;;15.53;65.79;101319.44;4993656;28;20454;-51
2022/06/06 01:11:42;;;;;;;7.75;4.82;;;;;;;15.53;66.06;101314.22;4993441;28;20074;-50
2022/06/06 01:14:11;;;;;;;6.68;4.63;;;;;;;15.52;66.13;101304.66;4994002;28;20089;-50
2022/06/06 01:16:49;;;;;;;10.57;4.90;;;;;;;15.53;65.97;101295.94;4993506;28;20050;-49
2022/06/06 01:19:44;;;;;;;7.32;4.90;;;;;;;15.53;66.04;101282.88;4993449;28;20056;-50
2022/06/06 01:22:40;;;;;;;7.70;5.20;;;;;;;15.50;66.11;101269.84;4993633;28;20043;-50
2022/06/06 01:25:27;;;;;;;8.63;5.10;;;;;;;15.48;65.77;101269.03;4993615;28;20293;-50
2022/06/06 01:27:59;;;;;;;5.95;4.78;;;;;;;15.47;66.19;101264.69;4993696;28;20062;-52
2022/06/06 01:30:33;;;;;;;7.25;4.35;;;;;;;15.42;66.19;101256.94;4993731;28;20070;-51
2022/06/06 01:33:02;;;;;;;8.23;5.60;;;;;;;15.40;66.26;101244.81;4993306;28;20066;-51
2022/06/06 01:35:32;;;;;;;9.38;4.75;;;;;;;15.40;66.45;101250.03;4993580;28;20046;-50
2022/06/06 01:37:59;;;;;;;7.85;5.22;;;;;;;15.40;66.77;101253.50;4993506;28;20054;-50
2022/06/06 01:40:33;;;;;;;8.07;5.10;;;;;;;15.41;66.59;101257.00;4993658;28;20050;-49
2022/06/06 01:43:06;;;;;;;5.13;3.85;;;;;;;15.39;66.53;101258.78;4993140;28;20664;-52
2022/06/06 01:45:41;;;;;;;8.50;5.22;;;;;;;15.38;66.94;101259.66;4992487;28;20055;-50
2022/06/06 01:48:11;;;;;;;8.00;4.93;;;;;;;15.37;67.06;101257.94;4993128;28;20137;-50
2022/06/06 01:50:40;;;;;;;7.10;4.32;;;;;;;15.39;66.87;101261.38;4992945;28;20064;-50
2022/06/06 01:53:08;;;;;;;11.75;5.30;;;;;;;15.38;67.04;101255.28;5010713;28;20073;-51
2022/06/06 01:55:38;;;;;;;6.63;4.50;;;;;;;15.38;66.94;101255.28;5012298;28;20382;-51
2022/06/06 01:58:07;;;;;;;8.15;4.88;;;;;;;15.36;66.75;101251.00;5012420;28;20054;-52
2022/06/06 02:00:39;;;;;;;7.45;4.47;;;;;;;15.36;66.58;101256.22;5012442;28;20053;-50
2022/06/06 02:03:06;;;;;;;11.45;4.45;;;;;;;15.31;66.94;101255.44;4995145;28;20046;-51
2022/06/06 02:05:33;;;;;;;6.47;4.38;;;;;;;15.31;66.72;101258.06;4992836;28;20082;-51
2022/06/06 02:08:00;;;;;;;8.65;5.10;;;;;;;15.29;66.52;101265.94;4993380;28;20062;-51
2022/06/06 02:10:26;;;;;;;6.82;4.53;;;;;;;15.31;66.71;101252.84;4993317;28;20069;-50
2022/06/06 02:12:54;;;;;;;6.20;4.63;;;;;;;15.31;66.67;101258.06;4993133;28;20360;-50
2022/06/06 02:15:24;;;;;;;7.07;4.22;;;;;;;15.27;66.97;101249.44;4993261;28;20069;-50
2022/06/06 02:17:53;;;;;;;6.60;4.70;;;;;;;15.27;67.12;101248.56;4993313;28;20062;-49
2022/06/06 02:20:24;;;;;;;9.02;5.40;;;;;;;15.25;67.00;101242.50;4992845;28;20061;-50
2022/06/06 02:22:53;;;;;;;6.90;4.60;;;;;;;15.20;66.93;101249.56;4992566;28;20517;-50
2022/06/06 02:25:21;;;;;;;5.82;4.28;;;;;;;15.19;67.03;101248.72;4988432;28;20063;-50
2022/06/06 02:27:48;;;;;;;7.57;4.57;;;;;;;15.19;67.01;101242.63;4992986;28;20065;-51
2022/06/06 02:30:17;;;;;;;6.25;3.80;;;;;;;15.15;66.61;101242.69;4993116;28;20121;-52
2022/06/06 02:32:44;;;;;;;5.90;4.30;;;;;;;15.13;66.89;101235.78;4992862;28;20046;-53
2022/06/06 02:35:17;;;;;;;6.13;4.15;;;;;;;15.13;66.99;101243.63;4993166;28;20054;-50
2022/06/06 02:37:46;;;;;;;6.70;3.88;;;;;;;15.12;66.94;101242.75;4993411;28;20069;-50
2022/06/06 02:40:15;;;;;;;7.47;5.03;;;;;;;15.11;66.97;101246.25;4993251;28;20109;-50
2022/06/06 02:42:43;;;;;;;8.60;5.18;;;;;;;15.11;66.65;101246.25;4993175;28;20061;-51
2022/06/06 02:45:11;;;;;;;8.20;4.63;;;;;;;15.10;66.72;101241.94;4993106;28;20068;-50
2022/06/06 02:47:38;;;;;;;8.23;4.15;;;;;;;15.11;66.89;101245.41;4992800;28;20050;-50
2022/06/06 02:50:07;;;;;;;6.22;4.57;;;;;;;15.12;66.98;101242.75;4992913;28;20046;-52
2022/06/06 02:52:35;;;;;;;7.28;4.63;;;;;;;15.15;66.95;101236.63;4992956;28;20058;-52
2022/06/06 02:55:02;;;;;;;4.85;3.75;;;;;;;15.15;66.83;101240.09;4992656;28;20081;-50
2022/06/06 02:57:29;;;;;;;5.68;3.63;;;;;;;15.19;66.82;101234.81;4995053;28;20633;-50
2022/06/06 02:59:59;;;;;;;6.25;4.13;;;;;;;15.22;67.07;101233.00;4996180;28;20054;-52
2022/06/06 03:02:26;;;;;;;6.75;4.65;;;;;;;15.25;66.68;101237.28;4996009;28;20054;-50
2022/06/06 03:04:53;;;;;;;7.18;4.15;;;;;;;15.30;66.85;101238.06;4996072;28;20050;-50
2022/06/06 03:07:29;;;;;;;5.70;3.80;;;;;;;15.37;66.45;101237.03;4996451;28;20094;-50
2022/06/06 03:10:11;;;;;;;6.25;4.10;;;;;;;15.44;66.49;101228.19;4996310;28;20138;-52
2022/06/06 03:12:58;;;;;;;10.35;4.25;;;;;;;15.52;66.25;101231.50;4995797;28;20050;-50
2022/06/06 03:20:46;;;;;;;13.93;4.38;;;;;;;15.61;66.38;101228.75;4996331;28;20054;-53
2022/06/06 03:21:28;;;;;;;6.53;3.80;;;;;;;15.78;65.94;101231.84;4995872;28;20065;-50
2022/06/06 03:24:16;;;;;;;7.30;3.60;;;;;;;15.88;65.99;101229.03;4995815;28;20459;-50
2022/06/06 03:27:02;;;;;;;6.78;4.10;;;;;;;15.98;65.68;101226.19;4995697;28;20062;-50
2022/06/06 03:29:46;;;;;;;4.72;3.40;;;;;;;16.05;65.64;101219.91;4995819;28;20070;-50
2022/06/06 03:32:21;;;;;;;7.55;3.40;;;;;;;16.14;65.50;101228.47;4995874;28;20065;-51
2022/06/06 03:35:02;;;;;;;4.93;3.15;;;;;;;16.23;65.56;101221.25;4995533;28;20699;-53
2022/06/06 03:37:34;;;;;;;4.72;3.10;;;;;;;16.33;65.46;101214.91;4995865;28;20141;-50
2022/06/06 03:40:12;;;;;;;5.85;3.40;;;;;;;16.46;64.83;101222.44;4995971;28;20116;-52
2022/06/06 03:42:51;;;;;;;9.52;4.43;;;;;;;16.54;64.89;101225.72;4995954;28;20140;-52
2022/06/06 03:45:26;;;;;;;7.00;3.33;;;;;;;16.63;64.88;101220.25;4995782;28;20062;-54
2022/06/06 03:48:06;;;;;;;7.65;3.70;;;;;;;16.71;64.96;101216.59;4995581;28;20065;-50
2022/06/06 03:50:44;;;;;;;7.60;3.70;;;;;;;16.79;64.93;101216.41;4995250;28;20367;-51
2022/06/06 03:53:20;;;;;;;5.85;3.70;;;;;;;16.87;64.72;101214.44;4995277;28;20050;-49
2022/06/06 03:56:02;;;;;;;7.07;3.08;;;;;;;17.01;64.59;101212.28;4995711;28;20050;-49
2022/06/06 03:58:33;;;;;;;4.88;3.20;;;;;;;17.18;64.32;101213.59;4995592;28;20050;-50
2022/06/06 04:01:03;;;;;;;6.10;3.80;;;;;;;17.36;63.78;101213.06;4995483;28;20080;-50
2022/06/06 04:03:32;;;;;;;6.60;3.53;;;;;;;17.54;63.74;101217.78;4989405;28;20113;-50
2022/06/06 04:06:02;;;;;;;7.07;3.22;;;;;;;17.75;63.48;101216.34;4995049;28;20371;-52
2022/06/06 04:08:29;;;;;;;7.43;3.08;;;;;;;17.91;62.66;101211.47;4994632;28;20129;-50
2022/06/06 04:11:11;;;;;;;5.50;3.30;;;;;;;18.10;61.92;101217.84;4994140;28;20058;-50
2022/06/06 04:13:57;;;;;;;4.93;3.58;;;;;;;18.31;61.38;101220.72;4995373;28;20051;-50
2022/06/06 04:16:32;;;;;;;5.38;2.85;;;;;;;18.50;60.62;101221.81;4995149;28;20054;-52
2022/06/06 04:19:09;;;;;;;4.20;2.88;;;;;;;18.68;60.07;101229.09;4995210;28;20054;-50
2022/06/06 04:21:45;;;;;;;4.70;3.10;;;;;;;18.88;59.45;101224.03;4995056;28;20050;-50
2022/06/06 04:24:28;;;;;;;14.77;3.45;;;;;;;19.10;59.20;101218.88;4995031;28;20050;-50
2022/06/06 04:27:03;;;;;;;5.25;3.30;;;;;;;19.28;58.56;101216.50;4994922;28;20046;-50
2022/06/06 04:29:39;;;;;;;25.85;5.15;;;;;;;19.46;58.08;101215.81;4995031;28;20047;-49
2022/06/06 04:32:15;;;;;;;10.40;3.47;;;;;;;19.60;57.84;101208.28;4995003;28;20050;-52
2022/06/06 04:34:51;;;;;;;6.63;3.20;;;;;;;19.78;56.90;101206.75;4994923;28;20046;-52
2022/06/06 04:37:22;;;;;;;4.28;2.85;;;;;;;19.94;56.50;101207.88;4994425;28;20735;-51
2022/06/06 04:39:56;;;;;;;4.63;3.15;;;;;;;20.11;56.06;101205.41;4994718;28;20062;-54
2022/06/06 04:42:35;;;;;;;4.93;3.33;;;;;;;20.27;55.33;101196.88;4994927;28;20046;-52
2022/06/06 04:45:13;;;;;;;6.68;2.67;;;;;;;20.42;54.79;101197.16;4994426;28;20065;-50
2022/06/06 04:47:41;;;;;;;4.22;3.38;;;;;;;20.55;54.57;101194.00;4994333;28;20398;-53
2022/06/06 04:50:12;;;;;;;4.85;3.15;;;;;;;20.68;54.14;101195.19;4994652;28;20054;-51
2022/06/06 04:52:41;;;;;;;4.75;3.05;;;;;;;20.76;53.68;101193.94;4994363;28;20054;-51
2022/06/06 04:55:12;;;;;;;7.10;3.42;;;;;;;20.89;53.47;101198.69;4994565;28;20054;-52
2022/06/06 04:57:46;;;;;;;4.25;3.08;;;;;;;21.01;52.85;101195.50;4992501;28;20398;-50
2022/06/06 05:00:14;;;;;;;6.97;3.33;;;;;;;21.13;52.27;101197.59;4977973;28;20055;-50
2022/06/06 05:02:45;;;;;;;5.03;3.10;;;;;;;21.25;51.65;101196.22;4988171;28;20054;-52
2022/06/06 05:05:12;;;;;;;5.25;3.00;;;;;;;21.37;51.47;101191.25;4994012;28;20046;-50
2022/06/06 05:07:55;;;;;;;6.00;3.00;;;;;;;21.48;50.82;101203.09;4994003;28;20081;-50
2022/06/06 05:10:33;;;;;;;6.00;3.65;;;;;;;21.59;50.65;101195.53;4985299;28;20137;-50
2022/06/06 05:13:17;;;;;;;6.72;3.67;;;;;;;21.68;50.06;101200.38;4974392;28;20093;-50
2022/06/06 05:15:58;;;;;;;5.38;3.60;;;;;;;21.75;49.69;101209.72;4974677;28;20051;-50
2022/06/06 05:18:47;;;;;;;4.97;3.45;;;;;;;21.82;49.46;101205.84;4992280;28;20066;-52
2022/06/06 05:21:36;;;;;;;4.35;3.40;;;;;;;21.91;48.91;101209.88;4993806;28;20148;-51
2022/06/06 05:24:25;;;;;;;5.38;3.60;;;;;;;21.97;48.55;101213.06;4993828;28;20061;-50
2022/06/06 05:27:28;;;;;;;5.60;3.60;;;;;;;22.08;48.27;101214.34;4993645;28;20739;-50
2022/06/06 05:30:15;;;;;;;5.22;3.35;;;;;;;22.14;48.15;101214.06;4986770;28;20069;-50
2022/06/06 05:32:57;;;;;;;5.30;3.60;;;;;;;22.27;47.88;101220.44;4993964;28;20046;-54
2022/06/06 05:35:50;;;;;;;5.13;2.97;;;;;;;22.39;47.18;101217.22;4993438;28;20050;-50
2022/06/06 05:38:28;;;;;;;7.22;3.17;;;;;;;22.50;47.45;101225.47;4993713;28;20050;-50
2022/06/06 05:41:07;;;;;;;9.27;3.78;;;;;;;22.65;47.28;101222.03;4993775;28;20137;-52
2022/06/06 05:43:42;;;;;;;5.85;3.38;;;;;;;22.81;46.81;101226.56;4993663;28;20042;-50
2022/06/06 05:46:27;;;;;;;3.88;3.10;;;;;;;22.93;45.95;101225.97;4993355;28;20574;-51
2022/06/06 05:49:10;;;;;;;5.20;3.63;;;;;;;23.07;45.71;101217.28;4993868;28;20078;-52
2022/06/06 05:51:47;;;;;;;4.20;2.88;;;;;;;23.26;45.08;101213.59;4993609;28;20055;-51
2022/06/06 05:54:29;;;;;;;7.05;3.13;;;;;;;23.46;44.80;101214.31;4993339;28;20391;-52
2022/06/06 05:57:22;;;;;;;6.32;3.63;;;;;;;23.61;43.63;101216.16;4993466;28;20058;-52
2022/06/06 06:00:05;;;;;;;7.32;3.95;;;;;;;23.75;43.57;101210.94;4993638;28;20050;-54
2022/06/06 06:02:53;;;;;;;4.70;3.42;;;;;;;23.86;43.49;101203.25;4993693;28;20081;-54
2022/06/06 06:05:34;;;;;;;5.55;3.75;;;;;;;23.93;43.43;101211.72;4914322;29;20074;-50
2022/06/06 06:08:13;;;;;;;6.03;4.32;;;;;;;23.95;43.34;101212.50;4985318;28;20454;-50
2022/06/06 06:10:47;;;;;;;12.35;4.00;;;;;;;23.95;43.34;101206.34;4993381;28;20064;-50
2022/06/06 06:13:25;;;;;;;6.93;3.75;;;;;;;24.04;43.44;101200.53;4993470;28;20391;-51
2022/06/06 06:15:53;;;;;;;5.90;3.53;;;;;;;24.13;43.26;101200.00;4993212;28;20434;-51
2022/06/06 06:18:27;;;;;;;4.90;4.00;;;;;;;24.21;43.07;101203.06;4993147;28;20093;-52
2022/06/06 06:21:00;;;;;;;7.70;3.60;;;;;;;24.26;43.08;101200.13;4993593;28;20054;-50
2022/06/06 06:23:32;;;;;;;9.30;3.70;;;;;;;24.30;42.94;101191.09;4993084;28;20634;-50
2022/06/06 06:26:05;;;;;;;7.57;3.85;;;;;;;24.31;42.92;101193.66;4993443;28;20098;-52
2022/06/06 06:28:34;;;;;;;9.40;3.72;;;;;;;24.29;42.90;101192.91;4993257;28;20050;-51
2022/06/06 06:31:13;;;;;;;6.18;3.60;;;;;;;24.22;43.04;101189.72;4993345;28;20538;-50
2022/06/06 06:33:52;;;;;;;6.43;3.42;;;;;;;24.21;42.99;101192.47;4997186;28;20074;-54
2022/06/06 06:36:34;;;;;;;6.35;4.10;;;;;;;24.16;43.24;101183.94;4992223;28;20050;-51
2022/06/06 06:39:22;;;;;;;9.00;4.25;;;;;;;24.10;43.20;101184.28;4996672;28;20386;-51
2022/06/06 06:42:02;;;;;;;6.57;3.47;;;;;;;24.07;43.54;101184.47;4996950;28;20053;-51
2022/06/06 06:44:36;;;;;;;7.90;4.18;;;;;;;24.10;43.75;101184.28;4997182;28;20042;-52
2022/06/06 06:47:09;;;;;;;5.70;3.60;;;;;;;24.13;43.85;101177.03;4996829;28;20076;-51
2022/06/06 06:49:41;;;;;;;5.65;3.85;;;;;;;24.17;43.60;101186.50;4996947;28;20050;-50
2022/06/06 06:52:20;;;;;;;6.30;4.28;;;;;;;24.19;43.49;101181.97;4997032;28;20050;-51
2022/06/06 06:55:16;;;;;;;10.88;4.18;;;;;;;24.24;43.18;101181.69;4996565;28;20140;-50
2022/06/06 06:57:59;;;;;;;6.40;4.72;;;;;;;24.29;43.59;101184.94;4993801;28;20459;-50
2022/06/06 07:00:26;;;;;;;8.27;4.13;;;;;;;24.40;43.48;101177.22;4995932;28;20676;-51
2022/06/06 07:09:18;;;;;;;6.97;4.93;;;;;;;24.82;42.47;101175.59;4995769;28;20506;-50
2022/06/06 07:12:02;;;;;;;6.10;4.45;;;;;;;24.98;42.49;101165.84;4977087;28;20055;-50
2022/06/06 07:14:51;;;;;;;29.08;6.45;;;;;;;25.13;42.21;101161.38;4988654;28;20046;-50
2022/06/06 07:17:20;;;;;;;26.35;6.93;;;;;;;25.25;42.28;101149.13;4996651;28;20062;-50
2022/06/06 07:19:50;;;;;;;5.93;4.40;;;;;;;25.34;42.08;101148.53;4996333;28;20101;-50
2022/06/06 07:22:18;;;;;;;8.20;5.38;;;;;;;25.51;41.73;101151.00;4996179;28;20046;-50
2022/06/06 07:24:55;;;;;;;11.38;5.00;;;;;;;25.70;41.51;101151.53;4995771;28;20050;-51
2022/06/06 07:27:22;;;;;;;7.20;4.95;;;;;;;25.87;41.24;101146.94;4996101;28;20173;-50
2022/06/06 07:29:48;;;;;;;6.47;5.07;;;;;;;26.00;40.98;101145.16;4996113;28;20061;-50
2022/06/06 07:32:34;;;;;;;10.55;5.35;;;;;;;26.17;40.34;101150.22;4995973;28;20055;-50
2022/06/06 07:35:08;;;;;;;6.97;4.43;;;;;;;26.38;40.71;101154.13;4996005;28;20050;-53
2022/06/06 07:37:49;;;;;;;9.80;5.28;;;;;;;26.49;40.40;101165.81;4996078;28;20097;-52
2022/06/06 07:40:34;;;;;;;7.45;4.70;;;;;;;26.67;39.88;101159.28;4995831;28;20065;-51
2022/06/06 07:43:27;;;;;;;7.10;4.68;;;;;;;26.78;39.69;101156.72;4994269;28;20558;-50
2022/06/06 07:45:59;;;;;;;6.30;4.65;;;;;;;26.89;39.74;101143.50;4995461;28;20050;-50
2022/06/06 07:48:42;;;;;;;7.28;4.80;;;;;;;27.02;39.43;101144.38;4995176;28;20076;-50
2022/06/06 07:51:15;;;;;;;8.48;4.65;;;;;;;27.13;39.60;101145.47;4989219;28;20536;-54
2022/06/06 07:53:51;;;;;;;7.18;4.47;;;;;;;27.21;39.01;101143.09;4987827;28;20054;-50
2022/06/06 07:56:30;;;;;;;10.48;4.85;;;;;;;27.38;39.20;101150.72;4993115;28;20066;-54
2022/06/06 07:59:06;;;;;;;6.57;4.35;;;;;;;27.65;38.73;101143.44;4994029;28;20050;-53
2022/06/06 08:01:41;;;;;;;8.00;4.80;;;;;;;27.89;38.25;101150.56;4994091;28;20127;-50
2022/06/06 08:04:21;;;;;;;6.28;4.13;;;;;;;28.13;37.85;101146.09;4993974;28;20086;-50
2022/06/06 08:06:59;;;;;;;171.40;15.80;;;;;;;28.24;37.79;101140.81;4993929;28;20065;-50
2022/06/06 08:09:54;;;;;;;6.47;4.35;;;;;;;28.44;37.85;101141.94;4992127;28;20069;-51
2022/06/06 08:12:37;;;;;;;6.80;4.65;;;;;;;28.59;37.21;101135.44;4992688;28;20054;-50
2022/06/06 08:15:13;;;;;;;8.43;5.28;;;;;;;28.78;37.11;101134.03;4993429;28;20078;-50
2022/06/06 08:17:59;;;;;;;7.30;4.80;;;;;;;29.00;36.61;101135.88;4994114;28;20387;-50
2022/06/06 08:20:36;;;;;;;5.57;5.00;;;;;;;29.16;36.45;101133.69;4994681;28;20058;-50
2022/06/06 08:23:05;;;;;;;10.05;5.15;;;;;;;29.36;35.73;101130.25;4994762;28;20054;-50
2022/06/06 08:25:35;;;;;;;7.20;4.30;;;;;;;29.50;35.50;101132.69;4994733;28;20650;-51
2022/06/06 08:28:04;;;;;;;7.10;4.85;;;;;;;29.64;35.49;101128.88;4994623;28;20589;-51
2022/06/06 08:30:34;;;;;;;6.03;4.53;;;;;;;29.77;35.29;101134.94;4995028;28;20208;-50
2022/06/06 08:33:01;;;;;;;6.78;4.50;;;;;;;29.94;35.03;101141.53;4994725;28;20066;-50
2022/06/06 08:35:41;;;;;;;6.05;4.20;;;;;;;30.17;34.43;101141.47;4994718;28;20057;-51
2022/06/06 08:38:30;;;;;;;4.68;4.18;;;;;;;30.34;34.22;101138.25;4994850;28;20083;-50
2022/06/06 08:41:18;;;;;;;9.70;4.82;;;;;;;30.46;33.24;101137.19;4994835;28;20046;-51
2022/06/06 08:44:01;;;;;;;6.20;4.30;;;;;;;30.57;32.91;101134.44;4994277;28;20637;-51
2022/06/06 08:46:42;;;;;;;5.32;4.53;;;;;;;30.68;32.80;101137.06;4994655;28;20064;-50
2022/06/06 08:52:12;;;;;;;5.65;4.82;;;;;;;31.20;32.46;101119.13;4993741;28;20050;-51
2022/06/06 08:55:10;;;;;;;8.85;4.72;;;;;;;31.64;31.27;101120.50;4994003;28;20186;-53
2022/06/06 08:57:56;;;;;;;6.38;4.50;;;;;;;31.67;32.05;101124.72;4994437;28;20047;-51
2022/06/06 09:00:43;;;;;;;15.55;5.85;;;;;;;31.29;31.85;101115.66;4994391;28;20058;-53
2022/06/06 09:03:49;;;;;;;6.32;4.45;;;;;;;31.14;31.90;101121.47;4994106;28;20058;-50
2022/06/06 09:06:46;;;;;;;6.07;4.65;;;;;;;30.99;32.16;101107.63;4993952;28;20089;-51
2022/06/06 09:09:48;;;;;;;7.88;4.95;;;;;;;30.93;32.80;101118.88;4994132;28;20057;-51
2022/06/06 09:13:01;;;;;;;6.55;4.40;;;;;;;30.88;32.18;101105.06;4974372;28;20109;-54
2022/06/06 09:16:09;;;;;;;7.38;5.18;;;;;;;30.76;32.69;101106.97;4940162;28;20476;-51
2022/06/06 09:19:15;;;;;;;4.93;4.43;;;;;;;30.73;33.01;101100.06;4984815;28;20054;-52
2022/06/06 09:22:01;;;;;;;7.93;4.70;;;;;;;30.69;33.01;101100.44;4974712;28;20060;-54
2022/06/06 09:25:07;;;;;;;5.35;4.85;;;;;;;30.71;32.60;101088.66;4985402;28;20051;-54
2022/06/06 09:28:04;;;;;;;5.82;4.55;;;;;;;30.73;32.25;101085.84;4993718;28;20055;-50
2022/06/06 09:31:04;;;;;;;8.43;4.63;;;;;;;30.72;32.80;101081.47;4963641;28;20066;-51
2022/06/06 09:34:08;;;;;;;5.18;4.50;;;;;;;30.65;32.91;101091.84;4993780;28;20082;-53
2022/06/06 09:36:46;;;;;;;4.78;4.20;;;;;;;30.59;32.12;101092.38;4993565;28;20538;-52
2022/06/06 09:39:33;;;;;;;5.55;3.67;;;;;;;30.54;32.26;101086.53;4993497;28;20462;-54
2022/06/06 09:42:07;;;;;;;6.32;4.43;;;;;;;30.53;32.71;101079.50;4974597;28;20058;-51
2022/06/06 09:45:10;;;;;;;4.78;3.83;;;;;;;30.49;32.17;101083.41;4977910;28;20069;-51
2022/06/06 09:48:12;;;;;;;4.40;3.78;;;;;;;30.45;31.64;101087.34;4969415;28;20054;-54
2022/06/06 09:51:16;;;;;;;4.25;3.70;;;;;;;30.39;31.36;101078.03;4993758;28;20061;-52
2022/06/06 10:00:18;;;;;;;7.10;3.45;;;;;;;30.25;31.33;101074.84;5012750;28;20082;-50
2022/06/06 10:03:31;;;;;;;4.88;3.55;;;;;;;30.25;31.59;101074.84;4999089;28;20058;-51
2022/06/06 10:06:18;;;;;;;5.72;3.38;;;;;;;30.20;30.87;101061.88;4993689;28;20054;-53
2022/06/06 10:09:27;;;;;;;9.10;3.25;;;;;;;30.17;30.88;101063.94;4997658;28;20050;-50
2022/06/06 10:12:12;;;;;;;5.30;3.35;;;;;;;30.10;31.25;101061.78;4997094;28;20069;-52
2022/06/06 10:14:51;;;;;;;6.68;3.80;;;;;;;30.09;31.37;101057.41;4997723;28;20065;-51
2022/06/06 10:17:34;;;;;;;8.90;4.05;;;;;;;30.03;31.59;101065.97;4997538;28;20054;-50
2022/06/06 10:20:17;;;;;;;8.63;4.38;;;;;;;29.96;30.42;101062.09;4997347;28;20129;-51
2022/06/06 10:23:03;;;;;;;7.15;3.38;;;;;;;29.90;30.91;101065.28;5007502;28;20085;-50
2022/06/06 10:25:54;;;;;;;10.13;4.25;;;;;;;29.84;31.10;101060.44;5016605;28;20054;-50
2022/06/06 10:28:47;;;;;;;3.75;3.42;;;;;;;29.75;31.58;101062.06;5016926;28;20058;-51
2022/06/06 10:31:32;;;;;;;5.45;3.42;;;;;;;29.70;31.24;101055.44;5010226;28;20131;-50
2022/06/06 10:34:15;;;;;;;4.35;3.38;;;;;;;29.67;30.79;101047.66;4996922;28;20403;-50
2022/06/06 10:36:59;;;;;;;6.05;3.13;;;;;;;29.56;30.48;101055.69;4997065;28;20058;-50
2022/06/06 10:39:54;;;;;;;7.57;3.28;;;;;;;29.48;29.94;101049.19;4997094;28;20054;-54
2022/06/06 10:42:41;;;;;;;3.67;3.10;;;;;;;29.38;29.79;101048.22;4997048;28;20054;-51
2022/06/06 10:45:22;;;;;;;6.65;3.13;;;;;;;29.31;30.52;101047.03;4996548;28;20459;-50
2022/06/06 10:48:29;;;;;;;9.63;3.60;;;;;;;29.25;30.63;101050.19;4996520;28;20061;-51
2022/06/06 10:51:43;;;;;;;6.78;4.07;;;;;;;29.25;31.31;101041.34;4968285;28;20061;-50
2022/06/06 10:54:56;;;;;;;8.20;4.20;;;;;;;29.26;30.39;101041.22;4919792;29;20052;-51
2022/06/06 10:57:48;;;;;;;6.18;3.05;;;;;;;29.21;30.51;101041.59;4996398;28;20129;-50
2022/06/06 11:00:23;;;;;;;5.82;2.92;;;;;;;29.24;30.43;101035.16;4996625;28;20050;-52
2022/06/06 11:03:07;;;;;;;5.25;2.97;;;;;;;29.19;30.40;101032.00;4996686;28;20054;-51
2022/06/06 11:06:09;;;;;;;5.47;3.22;;;;;;;29.13;29.51;101032.47;4996517;28;20054;-51
2022/06/06 11:09:07;;;;;;;5.20;3.50;;;;;;;29.10;30.39;101030.06;4996245;28;20515;-53
2022/06/06 11:11:56;;;;;;;5.57;3.40;;;;;;;29.11;30.96;101029.09;4995963;28;20392;-50
2022/06/06 11:14:29;;;;;;;5.15;3.58;;;;;;;29.05;31.38;101027.78;4996415;28;20059;-50
2022/06/06 11:17:22;;;;;;;5.20;3.88;;;;;;;29.01;31.16;101023.66;4995842;28;20047;-54
2022/06/06 11:20:18;;;;;;;14.77;4.13;;;;;;;29.00;31.73;101018.44;4996326;28;20058;-53
2022/06/06 11:22:54;;;;;;;6.82;3.42;;;;;;;28.99;32.07;101030.09;4995873;28;20486;-50
2022/06/06 11:25:22;;;;;;;6.15;4.30;;;;;;;28.93;32.26;101023.44;4996142;28;20137;-53
2022/06/06 11:28:12;;;;;;;6.18;4.22;;;;;;;28.90;32.12;101032.53;4995673;28;20056;-51
2022/06/06 11:31:03;;;;;;;6.13;3.60;;;;;;;28.85;32.08;101032.06;4994506;28;20057;-50
2022/06/06 11:34:07;;;;;;;5.25;3.38;;;;;;;28.84;31.88;101022.34;4976690;28;20062;-51
2022/06/06 11:37:21;;;;;;;14.75;3.90;;;;;;;28.81;31.70;101022.56;4993203;28;20046;-51
2022/06/06 11:40:12;;;;;;;4.28;3.25;;;;;;;28.81;32.02;101019.91;4918417;28;20055;-52
2022/06/06 11:43:12;;;;;;;4.82;3.40;;;;;;;28.79;31.55;101024.53;4995933;28;20054;-50
2022/06/06 11:46:14;;;;;;;3.50;2.83;;;;;;;28.75;30.90;101025.75;4995810;28;20050;-51
2022/06/06 11:49:13;;;;;;;5.28;3.53;;;;;;;28.64;31.34;101031.09;4993281;28;20058;-53
2022/06/06 11:52:12;;;;;;;6.70;3.60;;;;;;;28.53;31.28;101025.72;4984099;28;20106;-52
2022/06/06 11:54:59;;;;;;;6.88;3.60;;;;;;;28.44;31.95;101013.13;4976560;28;20066;-50
2022/06/06 11:57:39;;;;;;;5.03;3.38;;;;;;;28.42;32.33;101015.91;4980224;28;20061;-51
2022/06/06 12:00:21;;;;;;;8.15;3.50;;;;;;;28.39;31.83;101009.97;4992273;28;20133;-50
2022/06/06 12:03:21;;;;;;;6.72;3.75;;;;;;;28.38;32.27;101018.94;4993654;28;20646;-50
2022/06/06 12:06:30;;;;;;;3.63;3.33;;;;;;;28.37;32.23;101002.09;4995259;28;20046;-50
2022/06/06 12:09:12;;;;;;;10.27;4.50;;;;;;;28.31;31.72;101002.56;4995467;28;20077;-52
2022/06/06 12:12:17;;;;;;;7.78;3.63;;;;;;;28.22;31.82;101012.13;4994969;28;20054;-51
2022/06/06 12:15:00;;;;;;;20.42;4.43;;;;;;;28.13;32.28;101018.16;4982030;28;20054;-52
2022/06/06 12:17:44;;;;;;;5.32;3.70;;;;;;;28.04;32.35;101015.34;4975800;28;20058;-54
2022/06/06 12:20:47;;;;;;;8.45;4.13;;;;;;;28.01;32.62;101005.75;4975891;28;20066;-52
2022/06/06 12:23:19;;;;;;;9.93;4.22;;;;;;;27.90;32.36;101014.59;4989588;28;20069;-55
2022/06/06 12:26:01;;;;;;;6.00;3.33;;;;;;;27.78;32.14;100993.38;4995071;28;20065;-53
2022/06/06 12:29:03;;;;;;;5.82;3.80;;;;;;;27.72;32.23;101009.81;4994834;28;20056;-55
2022/06/06 12:31:42;;;;;;;6.07;4.18;;;;;;;27.65;33.07;101015.59;4986249;28;20059;-52
2022/06/06 12:34:15;;;;;;;5.30;3.53;;;;;;;27.62;33.55;101007.84;4991366;28;20057;-52
2022/06/06 12:36:51;;;;;;;5.93;3.47;;;;;;;27.64;34.04;101003.25;4994493;28;20065;-53
2022/06/06 12:39:26;;;;;;;7.32;4.25;;;;;;;27.63;34.05;101012.22;4993947;28;20050;-55
2022/06/06 12:42:03;;;;;;;6.93;4.32;;;;;;;27.64;33.99;101003.25;4994219;28;20062;-54
2022/06/06 12:44:53;;;;;;;6.57;4.13;;;;;;;27.60;33.91;101003.56;4994789;28;20077;-55